createdAt,value
2019-01-10T00:00:30.630Z,3.32
2019-01-10T00:02:59.894Z,3.25
2019-01-10T00:05:29.189Z,3.15
2019-01-10T00:07:58.459Z,3.11
2019-01-10T00:10:27.781Z,3.05
2019-01-10T00:12:57.016Z,2.96
2019-01-10T00:15:26.276Z,2.87
2019-01-10T00:17:55.520Z,2.80
2019-01-10T00:20:24.810Z,2.72
2019-01-10T00:22:54.037Z,2.68
2019-01-10T00:25:23.350Z,2.62
2019-01-10T00:27:52.619Z,2.55
2019-01-10T00:30:22.079Z,2.46
2019-01-10T00:32:51.307Z,2.39
2019-01-10T00:35:20.555Z,2.31
2019-01-10T00:37:49.797Z,2.23
2019-01-10T00:40:20.265Z,2.17
2019-01-10T00:42:50.064Z,2.08
2019-01-10T00:45:19.384Z,2.02
2019-01-10T00:47:48.644Z,1.93
2019-01-10T00:50:20.176Z,1.84
2019-01-10T00:52:49.453Z,1.75
2019-01-10T00:55:18.683Z,1.67
2019-01-10T00:57:47.929Z,1.57
2019-01-10T01:00:20.215Z,1.50
2019-01-10T01:02:49.548Z,1.43
2019-01-10T01:05:19.212Z,1.37
2019-01-10T01:07:48.553Z,1.35
2019-01-10T01:10:20.201Z,1.33
2019-01-10T01:12:58.052Z,1.31
2019-01-10T01:15:20.526Z,1.23
2019-01-10T01:17:49.774Z,1.19
2019-01-10T01:20:21.514Z,1.13
2019-01-10T01:22:50.825Z,1.09
2019-01-10T01:25:20.090Z,1.04
2019-01-10T01:27:49.330Z,1.03
2019-01-10T01:30:23.672Z,1.07
2019-01-10T01:32:53.165Z,1.09
2019-01-10T01:35:22.384Z,1.12
2019-01-10T01:37:51.643Z,1.11
2019-01-10T01:40:21.495Z,1.11
2019-01-10T01:42:50.830Z,1.12
2019-01-10T01:45:20.740Z,1.19
2019-01-10T01:47:50.493Z,1.22
2019-01-10T01:50:24.359Z,1.22
2019-01-10T01:52:53.799Z,1.26
2019-01-10T01:55:23.024Z,1.32
2019-01-10T01:57:52.284Z,1.42
2019-01-10T02:00:23.450Z,1.50
2019-01-10T02:02:52.699Z,1.62
2019-01-10T02:05:21.952Z,1.64
2019-01-10T02:07:51.530Z,1.64
2019-01-10T02:10:25.468Z,1.60
2019-01-10T02:12:54.800Z,1.54
2019-01-10T02:15:24.157Z,1.48
2019-01-10T02:17:53.419Z,1.40
2019-01-10T02:20:22.773Z,1.34
2019-01-10T02:22:52.034Z,1.27
2019-01-10T02:25:21.277Z,1.21
2019-01-10T02:27:50.527Z,1.15
2019-01-10T02:30:22.416Z,1.08
2019-01-10T02:32:51.637Z,1.05
2019-01-10T02:35:20.975Z,1.03
2019-01-10T02:37:50.333Z,1.05
2019-01-10T02:40:19.566Z,1.04
2019-01-10T02:42:48.835Z,1.03
2019-01-10T02:45:18.165Z,1.04
2019-01-10T02:47:47.389Z,1.05
2019-01-10T02:50:18.949Z,1.06
2019-01-10T02:52:48.187Z,1.08
2019-01-10T02:55:17.541Z,1.10
2019-01-10T02:57:46.795Z,1.11
2019-01-10T03:00:19.143Z,1.12
2019-01-10T03:02:48.493Z,1.15
2019-01-10T03:05:17.999Z,1.17
2019-01-10T03:07:47.234Z,1.16
2019-01-10T03:10:21.734Z,1.18
2019-01-10T03:12:51.094Z,1.22
2019-01-10T03:15:20.329Z,1.21
2019-01-10T03:17:49.564Z,1.23
2019-01-10T03:20:21.048Z,1.24
2019-01-10T03:22:50.369Z,1.24
2019-01-10T03:25:19.691Z,1.24
2019-01-10T03:27:48.925Z,1.25
2019-01-10T03:30:19.465Z,1.27
2019-01-10T03:32:48.699Z,1.27
2019-01-10T03:35:17.951Z,1.28
2019-01-10T03:37:47.192Z,1.26
2019-01-10T03:40:18.884Z,1.25
2019-01-10T03:42:48.156Z,1.30
2019-01-10T03:45:19.094Z,1.28
2019-01-10T03:47:48.421Z,1.27
2019-01-10T03:50:18.216Z,1.26
2019-01-10T03:52:47.447Z,1.28
2019-01-10T03:55:16.787Z,1.32
2019-01-10T03:57:46.019Z,1.33
2019-01-10T04:00:20.749Z,1.34
2019-01-10T04:02:50.122Z,1.36
2019-01-10T04:05:19.484Z,1.34
2019-01-10T04:07:48.728Z,1.36
2019-01-10T04:10:18.359Z,1.39
2019-01-10T04:12:47.643Z,1.39
2019-01-10T04:15:17.468Z,1.41
2019-01-10T04:17:46.685Z,1.41
2019-01-10T04:20:17.441Z,1.42
2019-01-10T04:22:46.756Z,1.44
2019-01-10T04:25:16.218Z,1.45
2019-01-10T04:27:45.450Z,1.45
2019-01-10T04:30:18.782Z,1.46
2019-01-10T04:32:48.112Z,1.47
2019-01-10T04:35:17.441Z,1.51
2019-01-10T04:37:46.778Z,1.53
2019-01-10T04:40:18.134Z,1.54
2019-01-10T04:42:47.584Z,1.54
2019-01-10T04:45:16.920Z,1.54
2019-01-10T04:47:46.142Z,1.52
2019-01-10T04:50:16.332Z,1.52
2019-01-10T04:52:45.578Z,1.56
2019-01-10T04:55:14.945Z,1.58
2019-01-10T04:57:44.208Z,1.58
2019-01-10T05:00:19.020Z,1.61
2019-01-10T05:02:48.280Z,1.62
2019-01-10T05:05:17.518Z,1.62
2019-01-10T05:07:46.779Z,1.65
2019-01-10T05:10:16.135Z,1.68
2019-01-10T05:12:45.390Z,1.71
2019-01-10T05:15:16.240Z,1.71
2019-01-10T05:17:45.494Z,1.71
2019-01-10T05:20:17.007Z,1.70
2019-01-10T05:22:46.750Z,1.70
2019-01-10T05:25:15.995Z,1.68
2019-01-10T05:27:45.271Z,1.67
2019-01-10T05:30:22.425Z,1.67
2019-01-10T05:32:51.706Z,1.68
2019-01-10T05:35:20.956Z,1.71
2019-01-10T05:37:50.232Z,1.73
2019-01-10T05:40:19.488Z,1.75
2019-01-10T05:42:48.760Z,1.77
2019-01-10T05:45:18.845Z,1.79
2019-01-10T05:47:48.118Z,1.80
2019-01-10T05:50:18.341Z,1.82
2019-01-10T05:52:47.727Z,1.84
2019-01-10T05:55:18.589Z,1.85
2019-01-10T05:57:47.854Z,1.85
2019-01-10T06:00:20.191Z,1.83
2019-01-10T06:02:49.439Z,1.83
2019-01-10T06:05:18.861Z,1.85
2019-01-10T06:07:48.086Z,1.85
2019-01-10T06:10:22.948Z,1.87
2019-01-10T06:12:52.183Z,1.90
2019-01-10T06:15:21.544Z,1.86
2019-01-10T06:17:50.798Z,1.81
2019-01-10T06:20:22.426Z,1.83
2019-01-10T06:22:51.664Z,1.86
2019-01-10T06:25:20.919Z,1.91
2019-01-10T06:27:50.171Z,1.93
2019-01-10T06:30:21.443Z,1.94
2019-01-10T06:32:50.677Z,1.98
2019-01-10T06:35:19.952Z,2.01
2019-01-10T06:37:49.182Z,2.05
2019-01-10T06:40:21.806Z,2.08
2019-01-10T06:42:51.119Z,2.08
2019-01-10T06:45:20.454Z,2.09
2019-01-10T06:47:49.709Z,2.05
2019-01-10T06:50:18.999Z,2.02
2019-01-10T06:52:48.337Z,2.00
2019-01-10T06:55:17.609Z,1.99
2019-01-10T06:57:46.825Z,1.99
2019-01-10T07:00:21.462Z,2.00
2019-01-10T07:02:50.778Z,2.02
2019-01-10T07:05:20.037Z,2.03
2019-01-10T07:07:56.186Z,2.06
2019-01-10T07:10:23.207Z,2.06
2019-01-10T07:12:52.508Z,2.07
2019-01-10T07:15:21.708Z,2.11
2019-01-10T07:17:50.962Z,2.14
2019-01-10T07:20:20.371Z,2.15
2019-01-10T07:22:51.537Z,2.17
2019-01-10T07:25:20.864Z,2.16
2019-01-10T07:27:50.124Z,2.16
2019-01-10T07:30:22.205Z,2.18
2019-01-10T07:32:51.441Z,2.20
2019-01-10T07:35:20.693Z,2.20
2019-01-10T07:37:52.194Z,2.22
2019-01-10T07:40:21.427Z,2.24
2019-01-10T07:42:51.014Z,2.26
2019-01-10T07:45:22.601Z,2.28
2019-01-10T07:47:51.829Z,2.32
2019-01-10T07:50:25.628Z,2.33
2019-01-10T07:52:54.882Z,2.37
2019-01-10T07:55:24.155Z,2.37
2019-01-10T07:57:53.415Z,2.37
2019-01-10T08:00:22.637Z,2.37
2019-01-10T08:02:51.931Z,2.38
2019-01-10T08:05:21.209Z,2.42
2019-01-10T08:07:50.570Z,2.46
2019-01-10T08:10:20.199Z,2.49
2019-01-10T08:12:49.465Z,2.52
2019-01-10T08:15:21.239Z,2.56
2019-01-10T08:17:50.477Z,2.58
2019-01-10T08:20:19.765Z,2.62
2019-01-10T08:22:49.037Z,2.65
2019-01-10T08:25:22.221Z,2.66
2019-01-10T08:27:51.576Z,2.67
2019-01-10T08:30:22.247Z,2.71
2019-01-10T08:32:51.828Z,2.74
2019-01-10T08:35:22.962Z,2.79
2019-01-10T08:37:52.210Z,2.84
2019-01-10T08:40:21.445Z,2.90
2019-01-10T08:42:50.692Z,2.94
2019-01-10T08:45:21.840Z,2.96
2019-01-10T08:47:50.956Z,3.00
2019-01-10T08:50:23.107Z,3.04
2019-01-10T08:52:52.365Z,3.08
2019-01-10T08:55:21.673Z,3.13
2019-01-10T08:57:50.937Z,3.19
2019-01-10T09:00:21.566Z,3.24
2019-01-10T09:02:50.885Z,3.29
2019-01-10T09:05:20.085Z,3.34
2019-01-10T09:07:49.341Z,3.37
2019-01-10T09:10:21.416Z,3.41
2019-01-10T09:12:50.667Z,3.45
2019-01-10T09:15:25.432Z,3.50
2019-01-10T09:17:50.827Z,3.54
2019-01-10T09:20:20.119Z,3.60
2019-01-10T09:22:49.360Z,3.65
2019-01-10T09:25:18.609Z,3.71
2019-01-10T09:27:47.949Z,3.77
2019-01-10T09:30:19.281Z,3.83
2019-01-10T09:32:48.658Z,3.88
2019-01-10T09:35:17.978Z,3.94
2019-01-10T09:37:47.966Z,3.99
2019-01-10T09:40:20.172Z,4.01
2019-01-10T09:42:49.446Z,4.02
2019-01-10T09:45:21.349Z,4.02
2019-01-10T09:47:50.670Z,4.05
2019-01-10T09:50:21.780Z,4.06
2019-01-10T09:52:51.615Z,4.12
2019-01-10T09:55:20.926Z,4.14
2019-01-10T09:57:50.175Z,4.18
2019-01-10T10:00:25.408Z,4.21
2019-01-10T10:02:54.654Z,4.26
2019-01-10T10:05:23.912Z,4.32
2019-01-10T10:07:53.586Z,4.39
2019-01-10T10:10:23.222Z,4.41
2019-01-10T10:12:52.593Z,4.42
2019-01-10T10:15:22.105Z,4.48
2019-01-10T10:17:51.392Z,4.50
2019-01-10T10:20:22.556Z,4.51
2019-01-10T10:22:51.794Z,4.51
2019-01-10T10:25:21.120Z,4.54
2019-01-10T10:27:50.704Z,4.55
2019-01-10T10:30:20.843Z,4.55
2019-01-10T10:32:50.185Z,4.56
2019-01-10T10:35:20.101Z,4.57
2019-01-10T10:37:49.516Z,4.59
2019-01-10T10:40:19.984Z,4.60
2019-01-10T10:42:49.774Z,4.63
2019-01-10T10:45:20.362Z,4.67
2019-01-10T10:47:49.613Z,4.69
2019-01-10T10:50:24.770Z,4.71
2019-01-10T10:52:54.057Z,4.74
2019-01-10T10:55:23.356Z,4.78
2019-01-10T10:57:52.610Z,4.84
2019-01-10T11:00:24.824Z,4.88
2019-01-10T11:02:54.088Z,4.96
2019-01-10T11:05:23.541Z,5.04
2019-01-10T11:07:52.923Z,5.14
2019-01-10T11:10:22.348Z,5.21
2019-01-10T11:12:51.627Z,5.28
2019-01-10T11:15:20.882Z,5.31
2019-01-10T11:17:50.253Z,5.36
2019-01-10T11:20:21.396Z,5.36
2019-01-10T11:22:50.817Z,5.36
2019-01-10T11:25:22.252Z,5.31
2019-01-10T11:27:51.594Z,5.28
2019-01-10T11:30:21.241Z,5.28
2019-01-10T11:32:50.485Z,5.32
2019-01-10T11:35:19.730Z,5.27
2019-01-10T11:37:48.986Z,5.23
2019-01-10T11:40:20.706Z,5.22
2019-01-10T11:42:50.070Z,5.24
2019-01-10T11:45:23.103Z,5.21
2019-01-10T11:47:52.343Z,5.17
2019-01-10T11:50:21.767Z,5.13
2019-01-10T11:52:51.049Z,5.10
2019-01-10T11:55:20.306Z,5.07
2019-01-10T11:57:49.540Z,5.08
2019-01-10T12:00:24.325Z,5.03
2019-01-10T12:02:56.168Z,5.04
2019-01-10T12:05:25.627Z,5.02
2019-01-10T12:07:54.890Z,5.03
2019-01-10T12:10:24.198Z,4.99
2019-01-10T12:12:53.581Z,4.98
2019-01-10T12:15:22.989Z,4.98
2019-01-10T12:17:52.226Z,4.98
2019-01-10T12:20:21.486Z,4.91
2019-01-10T12:22:50.730Z,4.85
2019-01-10T12:25:20.369Z,4.87
2019-01-10T12:27:49.750Z,4.92
2019-01-10T12:30:23.626Z,4.97
2019-01-10T12:32:52.934Z,5.04
2019-01-10T12:35:22.172Z,5.11
2019-01-10T12:37:51.482Z,5.15
2019-01-10T12:40:20.742Z,5.21
2019-01-10T12:42:49.988Z,5.28
2019-01-10T12:45:20.998Z,5.28
2019-01-10T12:47:50.327Z,5.32
2019-01-10T12:50:21.925Z,5.29
2019-01-10T12:52:51.235Z,5.32
2019-01-10T12:55:20.472Z,5.36
2019-01-10T12:57:49.815Z,5.42
2019-01-10T13:00:21.476Z,5.46
2019-01-10T13:02:50.911Z,5.47
2019-01-10T13:05:20.238Z,5.50
2019-01-10T13:07:49.495Z,5.50
2019-01-10T13:10:19.493Z,5.50
2019-01-10T13:12:49.142Z,5.49
2019-01-10T13:15:25.767Z,5.52
2019-01-10T13:17:55.024Z,5.52
2019-01-10T13:20:24.276Z,5.51
2019-01-10T13:22:53.625Z,5.51
2019-01-10T13:25:22.878Z,5.49
2019-01-10T13:27:52.235Z,5.54
2019-01-10T13:30:23.170Z,5.55
2019-01-10T13:32:53.081Z,5.58
2019-01-10T13:35:22.337Z,5.61
2019-01-10T13:37:51.709Z,5.61
2019-01-10T13:40:21.047Z,5.58
2019-01-10T13:42:50.359Z,5.52
2019-01-10T13:45:20.169Z,5.49
2019-01-10T13:47:49.702Z,5.48
2019-01-10T13:50:24.211Z,5.47
2019-01-10T13:52:53.631Z,5.46
2019-01-10T13:55:23.012Z,5.45
2019-01-10T13:57:55.710Z,5.50
2019-01-10T14:00:32.140Z,5.49
2019-01-10T14:03:00.056Z,5.49
2019-01-10T14:05:29.343Z,5.44
2019-01-10T14:07:58.683Z,5.41
2019-01-10T14:10:27.961Z,5.40
2019-01-10T14:12:57.279Z,5.41
2019-01-10T14:15:29.103Z,5.41
2019-01-10T14:17:58.360Z,5.39
2019-01-10T14:20:27.642Z,5.39
2019-01-10T14:22:56.895Z,5.42
2019-01-10T14:25:26.437Z,5.37
2019-01-10T14:27:59.579Z,5.36
2019-01-10T14:30:35.246Z,5.37
2019-01-10T14:33:04.531Z,5.39
2019-01-10T14:35:33.773Z,5.38
2019-01-10T14:38:03.017Z,5.36
2019-01-10T14:40:32.518Z,5.35
2019-01-10T14:43:01.768Z,5.31
2019-01-10T14:45:31.409Z,5.29
2019-01-10T14:48:02.081Z,5.26
2019-01-10T14:50:31.563Z,5.23
2019-01-10T14:53:00.870Z,5.19
2019-01-10T14:55:30.285Z,5.15
2019-01-10T14:57:59.712Z,5.13
2019-01-10T15:00:29.060Z,5.11
2019-01-10T15:02:58.350Z,5.06
2019-01-10T15:05:27.599Z,5.03
2019-01-10T15:07:57.714Z,5.01
2019-01-10T15:10:27.078Z,4.98
2019-01-10T15:12:56.308Z,4.99
2019-01-10T15:15:25.590Z,4.92
2019-01-10T15:17:54.853Z,4.91
2019-01-10T15:20:26.666Z,4.90
2019-01-10T15:22:55.992Z,4.89
2019-01-10T15:25:25.256Z,4.90
2019-01-10T15:27:54.480Z,4.85
2019-01-10T15:30:25.635Z,4.83
2019-01-10T15:32:55.258Z,4.82
2019-01-10T15:35:24.709Z,4.78
2019-01-10T15:37:53.996Z,4.74
2019-01-10T15:40:26.129Z,4.73
2019-01-10T15:42:55.466Z,4.68
2019-01-10T15:45:24.980Z,4.67
2019-01-10T15:47:54.260Z,4.64
2019-01-10T15:50:23.487Z,4.62
2019-01-10T15:52:52.716Z,4.59
2019-01-10T15:55:22.680Z,4.57
2019-01-10T15:57:52.813Z,4.53
2019-01-10T16:00:25.557Z,4.53
2019-01-10T16:02:54.793Z,4.52
2019-01-10T16:05:24.161Z,4.47
2019-01-10T16:07:53.403Z,4.44
2019-01-10T16:10:22.650Z,4.42
2019-01-10T16:12:51.912Z,4.41
2019-01-10T16:15:22.997Z,4.41
2019-01-10T16:17:52.355Z,4.41
2019-01-10T16:20:21.612Z,4.39
2019-01-10T16:22:50.950Z,4.38
2019-01-10T16:25:20.815Z,4.36
2019-01-10T16:27:50.036Z,4.34
2019-01-10T16:30:24.314Z,4.32
2019-01-10T16:32:53.630Z,4.31
2019-01-10T16:35:22.917Z,4.29
2019-01-10T16:37:52.167Z,4.27
2019-01-10T16:40:21.565Z,4.26
2019-01-10T16:42:50.907Z,4.24
2019-01-10T16:45:25.417Z,4.24
2019-01-10T16:47:54.755Z,4.23
2019-01-10T16:50:24.082Z,4.21
2019-01-10T16:52:53.299Z,4.19
2019-01-10T16:55:22.554Z,4.19
2019-01-10T16:57:51.823Z,4.19
2019-01-10T17:00:26.602Z,4.19
2019-01-10T17:02:55.846Z,4.19
2019-01-10T17:05:25.082Z,4.19
2019-01-10T17:07:54.351Z,4.20
2019-01-10T17:10:23.641Z,4.19
2019-01-10T17:12:52.898Z,4.18
2019-01-10T17:15:22.195Z,4.19
2019-01-10T17:17:51.446Z,4.21
2019-01-10T17:20:25.418Z,4.19
2019-01-10T17:22:54.680Z,4.19
2019-01-10T17:25:24.051Z,4.16
2019-01-10T17:27:53.305Z,4.15
2019-01-10T17:30:27.068Z,4.18
2019-01-10T17:32:56.325Z,4.16
2019-01-10T17:35:27.809Z,4.16
2019-01-10T17:37:57.323Z,4.17
2019-01-10T17:40:26.574Z,4.19
2019-01-10T17:42:55.982Z,4.19
2019-01-10T17:45:30.360Z,4.20
2019-01-10T17:47:59.662Z,4.18
2019-01-10T17:50:29.016Z,4.18
2019-01-10T17:52:58.235Z,4.17
2019-01-10T17:55:27.535Z,4.17
2019-01-10T17:57:56.901Z,4.18
2019-01-10T18:00:28.371Z,4.21
2019-01-10T18:02:57.768Z,4.22
2019-01-10T18:05:27.326Z,4.25
2019-01-10T18:07:56.587Z,4.25
2019-01-10T18:10:25.863Z,4.27
2019-01-10T18:12:55.148Z,4.27
2019-01-10T18:15:25.453Z,4.28
2019-01-10T18:17:54.846Z,4.30
2019-01-10T18:20:36.140Z,4.30
2019-01-10T18:23:05.950Z,4.30
2019-01-10T18:25:35.239Z,4.30
2019-01-10T18:28:04.780Z,4.32
2019-01-10T18:30:34.042Z,4.32
2019-01-10T18:33:03.458Z,4.33
2019-01-10T18:35:32.799Z,4.30
2019-01-10T18:38:02.051Z,4.30
2019-01-10T18:40:31.354Z,4.29
2019-01-10T18:43:00.620Z,4.30
2019-01-10T18:45:30.950Z,4.31
2019-01-10T18:48:00.235Z,4.31
2019-01-10T18:50:29.685Z,4.32
2019-01-10T18:52:58.925Z,4.32
2019-01-10T18:55:29.040Z,4.32
2019-01-10T18:57:58.432Z,4.30
2019-01-10T19:00:30.765Z,4.32
2019-01-10T19:03:00.544Z,4.31
2019-01-10T19:05:30.082Z,4.31
2019-01-10T19:07:59.319Z,4.29
2019-01-10T19:10:28.664Z,4.30
2019-01-10T19:12:58.012Z,4.30
2019-01-10T19:15:27.382Z,4.29
2019-01-10T19:18:03.151Z,4.27
2019-01-10T19:20:28.113Z,4.28
2019-01-10T19:22:57.955Z,4.27
2019-01-10T19:25:27.186Z,4.28
2019-01-10T19:27:56.469Z,4.26
2019-01-10T19:30:27.924Z,4.23
2019-01-10T19:32:57.274Z,4.23
2019-01-10T19:35:26.546Z,4.23
2019-01-10T19:37:55.926Z,4.25
2019-01-10T19:40:25.483Z,4.23
2019-01-10T19:42:54.726Z,4.25
2019-01-10T19:45:24.099Z,4.23
2019-01-10T19:47:53.424Z,4.21
2019-01-10T19:50:24.571Z,4.21
2019-01-10T19:52:53.858Z,4.22
2019-01-10T19:55:27.644Z,4.20
2019-01-10T19:57:59.323Z,4.21
2019-01-10T20:00:37.424Z,4.19
2019-01-10T20:03:06.732Z,4.19
2019-01-10T20:05:36.066Z,4.16
2019-01-10T20:08:05.377Z,4.17
2019-01-10T20:10:34.659Z,4.19
2019-01-10T20:13:03.995Z,4.19
2019-01-10T20:15:33.256Z,4.19
2019-01-10T20:18:02.707Z,4.17
2019-01-10T20:20:37.121Z,4.23
2019-01-10T20:23:07.558Z,4.22
2019-01-10T20:25:37.827Z,4.25
2019-01-10T20:28:07.928Z,4.23
2019-01-10T20:30:37.220Z,4.21
2019-01-10T20:33:06.558Z,4.21
2019-01-10T20:35:36.002Z,4.21
2019-01-10T20:38:05.572Z,4.21
2019-01-10T20:40:34.822Z,4.23
2019-01-10T20:43:04.184Z,4.23
2019-01-10T20:45:33.441Z,4.24
2019-01-10T20:48:02.708Z,4.27
2019-01-10T20:50:32.067Z,4.26
2019-01-10T20:53:01.347Z,4.24
2019-01-10T20:55:30.607Z,4.27
2019-01-10T20:57:59.852Z,4.29
2019-01-10T21:00:29.907Z,4.28
2019-01-10T21:02:59.225Z,4.25
2019-01-10T21:05:28.555Z,4.25
2019-01-10T21:07:57.903Z,4.26
2019-01-10T21:10:27.225Z,4.25
2019-01-10T21:12:56.507Z,4.26
2019-01-10T21:15:28.159Z,4.31
2019-01-10T21:17:57.424Z,4.27
2019-01-10T21:20:26.784Z,4.27
2019-01-10T21:22:57.008Z,4.28
2019-01-10T21:25:26.367Z,4.31
2019-01-10T21:27:55.647Z,4.30
2019-01-10T21:30:25.102Z,4.30
2019-01-10T21:32:54.359Z,4.30
2019-01-10T21:35:23.621Z,4.29
2019-01-10T21:37:52.912Z,4.28
2019-01-10T21:40:23.753Z,4.30
2019-01-10T21:42:53.669Z,4.30
2019-01-10T21:45:23.814Z,4.30
2019-01-10T21:47:53.194Z,4.28
2019-01-10T21:50:25.207Z,4.29
2019-01-10T21:52:54.539Z,4.27
2019-01-10T21:55:23.887Z,4.27
2019-01-10T21:57:53.194Z,4.26
2019-01-10T22:00:27.900Z,4.24
2019-01-10T22:02:57.272Z,4.24
2019-01-10T22:05:26.606Z,4.23
2019-01-10T22:07:55.860Z,4.21
2019-01-10T22:10:25.091Z,4.18
2019-01-10T22:12:54.391Z,4.17
2019-01-10T22:15:23.632Z,4.18
2019-01-10T22:17:52.892Z,4.17
2019-01-10T22:20:23.735Z,4.19
2019-01-10T22:22:52.970Z,4.18
2019-01-10T22:25:22.271Z,4.19
2019-01-10T22:27:51.707Z,4.19
2019-01-10T22:30:22.610Z,4.19
2019-01-10T22:32:51.862Z,4.19
2019-01-10T22:35:22.433Z,4.17
2019-01-10T22:37:52.180Z,4.15
2019-01-10T22:40:22.825Z,4.14
2019-01-10T22:42:52.359Z,4.11
2019-01-10T22:45:21.926Z,4.11
2019-01-10T22:47:51.193Z,4.07
2019-01-10T22:50:21.501Z,4.05
2019-01-10T22:52:50.948Z,4.04
2019-01-10T22:55:20.417Z,4.01
2019-01-10T22:57:49.798Z,4.01
2019-01-10T23:01:00.076Z,4.00
2019-01-10T23:03:32.045Z,4.01
2019-01-10T23:06:01.288Z,4.00
2019-01-10T23:08:30.612Z,4.02
2019-01-10T23:10:59.941Z,4.04
2019-01-10T23:13:29.224Z,4.06
2019-01-10T23:15:59.334Z,4.07
2019-01-10T23:18:28.597Z,4.07
2019-01-10T23:20:59.338Z,4.10
2019-01-10T23:23:28.676Z,4.10
2019-01-10T23:25:57.996Z,4.13
2019-01-10T23:28:27.261Z,4.13
2019-01-10T23:30:58.887Z,4.14
2019-01-10T23:33:28.376Z,4.15
2019-01-10T23:36:00.118Z,4.14
2019-01-10T23:38:29.411Z,4.16
2019-01-10T23:40:59.500Z,4.17
2019-01-10T23:43:28.820Z,4.16
2019-01-10T23:45:58.198Z,4.16
2019-01-10T23:48:27.457Z,4.18
2019-01-10T23:50:56.706Z,4.21
2019-01-10T23:53:25.971Z,4.21
2019-01-10T23:55:55.292Z,4.22
2019-01-10T23:58:24.592Z,4.23
